Hong KongFixed distance
Convoy Totem Run
8–9 Oct2016
Distance
57km
Finishers
828630 men195 women
Winning time
8:00:17h
Median pace
4.07km/h
Pace distribution
825 finishers · 3.10–7.12 km/h · mean 4.23
Every finisher ran the same 57 km course, so these paces are directly comparable.
Histogram of finisher pace. 825 finishers ranged from 3.10 to 7.12 kilometres per hour, with a mean of 4.23 and a median of 4.07. The busiest band is 3.5 to 4.0 kilometres per hour, with 228 finishers.
Results
Ranks 701–750 of 825
| Rank | Runner | Time | Pace | Cat. | Placing |
|---|---|---|---|---|---|
| 704 | Lau, ElaineHong KongWoman | 16:29:56h | 3.46 | W45 | 155th F · 29th W45 |
| 705 | Lee, Kin-KongHong KongMan | 16:30:14h | 3.45 | M50 | 550th M · 59th M50 |
| 706 | Cheng, Ngan-YinHong KongMan | 16:32:44h | 3.44 | M40 | 551st M · 96th M40 |
| 707 | Lau, Ka-KeungHong KongMan | 16:32:50h | 3.44 | M50 | 552nd M · 60th M50 |
| 708 | Lee, Yuk-KingHong KongWoman | 16:32:53h | 3.44 | W40 | 156th F · 32nd W40 |
| 709 | Pang, King-WaiHong KongMan | 16:32:53h | 3.44 | M55 | 553rd M · 36th M55 |
| 710 | Ho, Shuk-WaiHong KongWoman | 16:32:55h | 3.44 | W35 | 157th F · 36th W35 |
| 711 | Siu, Sin-HangHong KongWoman | 16:32:57h | 3.44 | W23 | 158th F · 49th W23 |
| 712 | Li, Fung-LinHong KongWoman | 16:32:58h | 3.44 | W45 | 159th F · 30th W45 |
| 713 | Chong, Kwok-Tung (James)Hong KongMan | 16:32:59h | 3.44 | M40 | 554th M · 97th M40 |
| 714 | Chan, Wai-Yin (Mickey)Hong KongMan | 16:33:13h | 3.44 | M45 | 555th M · 88th M45 |
| 715 | Chan, HengkyHong KongMan | 16:33:59h | 3.44 | M23 | 556th M · 165th M23 |
| 716 | Hung, Suet-YeeHong KongWoman | 16:34:00h | 3.44 | W40 | 160th F · 33rd W40 |
| 717 | Choi, Ko-YeeHong KongMan | 16:34:40h | 3.44 | M40 | 557th M · 98th M40 |
| 718 | Wong, Kan-MinHong KongMan | 16:34:45h | 3.44 | M40 | 558th M · 99th M40 |
| 719 | Fong, Wai-MingHong KongMan | 16:35:13h | 3.44 | M50 | 559th M · 61st M50 |
| 720 | Tang, Ying-KitHong KongMan | 16:35:15h | 3.44 | M35 | 560th M · 91st M35 |
| 721 | Chan, Yuk-ChongHong KongMan | 16:35:23h | 3.44 | M23 | 561st M · 166th M23 |
| 722 | Chow, Hon-Chung (Jonathan)Hong KongMan | 16:35:26h | 3.44 | M23 | 562nd M · 167th M23 |
| 723 | Lau, Shing-Kam (Brian)Hong KongMan | 16:35:26h | 3.44 | M23 | 562nd M · 167th M23 |
| 724 | Leung, Ka-KeiHong KongMan | 16:35:33h | 3.44 | M35 | 564th M · 92nd M35 |
| 725 | Tung, MichaelHong KongMan | 16:35:35h | 3.44 | M23 | 565th M · 169th M23 |
| 726 | Chan, Yu-Ching (Billy)Hong KongMan | 16:37:09h | 3.43 | M23 | 566th M · 170th M23 |
| 727 | Fung, Wing-Shan (Josephine)Hong KongWoman | 16:37:30h | 3.43 | W23 | 161st F · 50th W23 |
| 728 | Leung, Chi-Yuen (Alex)Hong KongMan | 16:38:01h | 3.43 | M40 | 567th M · 100th M40 |
| 729 | Wong, Sze-Lon (Lawrence)Hong KongMan | 16:38:49h | 3.42 | M35 | 568th M · 93rd M35 |
| 730 | Sum, Pun-Wah (Jeremy)Hong KongMan | 16:38:50h | 3.42 | M50 | 569th M · 62nd M50 |
| 731 | Xuan, Yue-MingChinaWoman | 16:38:57h | 3.42 | W23 | 162nd F · 51st W23 |
| 732 | Cheung, Chun-YuenHong KongMan | 16:38:57h | 3.42 | M23 | 570th M · 171st M23 |
| 733 | Kong, Yiu-ManHong KongMan | 16:39:27h | 3.42 | M40 | 571st M · 101st M40 |
| 734 | Leung, Kam-PuiHong KongMan | 16:39:39h | 3.42 | M50 | 572nd M · 63rd M50 |
| 735 | Chan, Hung-Ki (Jack)Hong KongMan | 16:39:40h | 3.42 | M55 | 573rd M · 37th M55 |
| 736 | Lee, Wing-SunHong KongMan | 16:39:40h | 3.42 | M55 | 573rd M · 37th M55 |
| 737 | Chiu, Bit-Keung (Dennis)Hong KongMan | 16:39:51h | 3.42 | M45 | 575th M · 89th M45 |
| 738 | Li, Yiu-Fai (Patrick)Hong KongMan | 16:40:09h | 3.42 | M45 | 576th M · 90th M45 |
| 739 | Yuen, Chi-Kwong (Peter)Hong KongMan | 16:42:17h | 3.41 | M50 | 577th M · 64th M50 |
| 740 | Ng, Shing-Chi (Joe)Hong KongMan | 16:42:27h | 3.41 | M23 | 578th M · 172nd M23 |
| 741 | Ho, Ka-Chun (Kelvin)Hong KongMan | 16:44:29h | 3.40 | M23 | 579th M · 173rd M23 |
| 742 | Mak, JoanneHong KongWoman | 16:48:14h | 3.39 | W35 | 163rd F · 37th W35 |
| 743 | Lam, ChrisHong KongMan | 16:48:20h | 3.39 | M40 | 580th M · 102nd M40 |
| 744 | Cho, MickyHong KongWoman | 16:48:58h | 3.39 | W40 | 164th F · 34th W40 |
| 745 | Chan, Ka-Lei (Jenny)Hong KongWoman | 16:50:02h | 3.39 | W23 | 165th F · 52nd W23 |
| 746 | Hui, Pit-Heng (Ivan)Hong KongMan | 16:50:25h | 3.38 | M40 | 581st M · 103rd M40 |
| 747 | Lui, Pui-Yee (Fanny)Hong KongWoman | 16:51:10h | 3.38 | W35 | 166th F · 38th W35 |
| 748 | Chan, Long-YingHong KongWoman | 16:51:11h | 3.38 | W23 | 167th F · 53rd W23 |
| 749 | Lai, Cheuk-Yin (Frederik)Hong KongMan | 16:51:17h | 3.38 | M23 | 582nd M · 174th M23 |
| 750 | Fong, Sze-Chun (Edmond)Hong KongMan | 16:51:25h | 3.38 | M40 | 583rd M · 104th M40 |
| 751 | Chan, Chun-Tak IIHong KongMan | 16:51:33h | 3.38 | M50 | 584th M · 65th M50 |
| 752 | Lui, Lai-ManHong KongWoman | 16:51:37h | 3.38 | W23 | 168th F · 54th W23 |
| 753 | Leung, Wai-HungHong KongMan | 16:51:46h | 3.38 | M60 | 585th M · 8th M60 |
- 704Lau, ElaineHong KongWoman155th F · 29th W45Time16:29:56hPace3.46Cat.W45
- 705Lee, Kin-KongHong KongMan550th M · 59th M50Time16:30:14hPace3.45Cat.M50
- 706Cheng, Ngan-YinHong KongMan551st M · 96th M40Time16:32:44hPace3.44Cat.M40
- 707Lau, Ka-KeungHong KongMan552nd M · 60th M50Time16:32:50hPace3.44Cat.M50
- 708Lee, Yuk-KingHong KongWoman156th F · 32nd W40Time16:32:53hPace3.44Cat.W40
- 709Pang, King-WaiHong KongMan553rd M · 36th M55Time16:32:53hPace3.44Cat.M55
- 710Ho, Shuk-WaiHong KongWoman157th F · 36th W35Time16:32:55hPace3.44Cat.W35
- 711Siu, Sin-HangHong KongWoman158th F · 49th W23Time16:32:57hPace3.44Cat.W23
- 712Li, Fung-LinHong KongWoman159th F · 30th W45Time16:32:58hPace3.44Cat.W45
- 713Chong, Kwok-Tung (James)Hong KongMan554th M · 97th M40Time16:32:59hPace3.44Cat.M40
- 714Chan, Wai-Yin (Mickey)Hong KongMan555th M · 88th M45Time16:33:13hPace3.44Cat.M45
- 715Chan, HengkyHong KongMan556th M · 165th M23Time16:33:59hPace3.44Cat.M23
- 716Hung, Suet-YeeHong KongWoman160th F · 33rd W40Time16:34:00hPace3.44Cat.W40
- 717Choi, Ko-YeeHong KongMan557th M · 98th M40Time16:34:40hPace3.44Cat.M40
- 718Wong, Kan-MinHong KongMan558th M · 99th M40Time16:34:45hPace3.44Cat.M40
- 719Fong, Wai-MingHong KongMan559th M · 61st M50Time16:35:13hPace3.44Cat.M50
- 720Tang, Ying-KitHong KongMan560th M · 91st M35Time16:35:15hPace3.44Cat.M35
- 721Chan, Yuk-ChongHong KongMan561st M · 166th M23Time16:35:23hPace3.44Cat.M23
- 722Chow, Hon-Chung (Jonathan)Hong KongMan562nd M · 167th M23Time16:35:26hPace3.44Cat.M23
- 723Lau, Shing-Kam (Brian)Hong KongMan562nd M · 167th M23Time16:35:26hPace3.44Cat.M23
- 724Leung, Ka-KeiHong KongMan564th M · 92nd M35Time16:35:33hPace3.44Cat.M35
- 725Tung, MichaelHong KongMan565th M · 169th M23Time16:35:35hPace3.44Cat.M23
- 726Chan, Yu-Ching (Billy)Hong KongMan566th M · 170th M23Time16:37:09hPace3.43Cat.M23
- 727Fung, Wing-Shan (Josephine)Hong KongWoman161st F · 50th W23Time16:37:30hPace3.43Cat.W23
- 728Leung, Chi-Yuen (Alex)Hong KongMan567th M · 100th M40Time16:38:01hPace3.43Cat.M40
- 729Wong, Sze-Lon (Lawrence)Hong KongMan568th M · 93rd M35Time16:38:49hPace3.42Cat.M35
- 730Sum, Pun-Wah (Jeremy)Hong KongMan569th M · 62nd M50Time16:38:50hPace3.42Cat.M50
- 731Xuan, Yue-MingChinaWoman162nd F · 51st W23Time16:38:57hPace3.42Cat.W23
- 732Cheung, Chun-YuenHong KongMan570th M · 171st M23Time16:38:57hPace3.42Cat.M23
- 733Kong, Yiu-ManHong KongMan571st M · 101st M40Time16:39:27hPace3.42Cat.M40
- 734Leung, Kam-PuiHong KongMan572nd M · 63rd M50Time16:39:39hPace3.42Cat.M50
- 735Chan, Hung-Ki (Jack)Hong KongMan573rd M · 37th M55Time16:39:40hPace3.42Cat.M55
- 736Lee, Wing-SunHong KongMan573rd M · 37th M55Time16:39:40hPace3.42Cat.M55
- 737Chiu, Bit-Keung (Dennis)Hong KongMan575th M · 89th M45Time16:39:51hPace3.42Cat.M45
- 738Li, Yiu-Fai (Patrick)Hong KongMan576th M · 90th M45Time16:40:09hPace3.42Cat.M45
- 739Yuen, Chi-Kwong (Peter)Hong KongMan577th M · 64th M50Time16:42:17hPace3.41Cat.M50
- 740Ng, Shing-Chi (Joe)Hong KongMan578th M · 172nd M23Time16:42:27hPace3.41Cat.M23
- 741Ho, Ka-Chun (Kelvin)Hong KongMan579th M · 173rd M23Time16:44:29hPace3.40Cat.M23
- 742Mak, JoanneHong KongWoman163rd F · 37th W35Time16:48:14hPace3.39Cat.W35
- 743Lam, ChrisHong KongMan580th M · 102nd M40Time16:48:20hPace3.39Cat.M40
- 744Cho, MickyHong KongWoman164th F · 34th W40Time16:48:58hPace3.39Cat.W40
- 745Chan, Ka-Lei (Jenny)Hong KongWoman165th F · 52nd W23Time16:50:02hPace3.39Cat.W23
- 746Hui, Pit-Heng (Ivan)Hong KongMan581st M · 103rd M40Time16:50:25hPace3.38Cat.M40
- 747Lui, Pui-Yee (Fanny)Hong KongWoman166th F · 38th W35Time16:51:10hPace3.38Cat.W35
- 748Chan, Long-YingHong KongWoman167th F · 53rd W23Time16:51:11hPace3.38Cat.W23
- 749Lai, Cheuk-Yin (Frederik)Hong KongMan582nd M · 174th M23Time16:51:17hPace3.38Cat.M23
- 750Fong, Sze-Chun (Edmond)Hong KongMan583rd M · 104th M40Time16:51:25hPace3.38Cat.M40
- 751Chan, Chun-Tak IIHong KongMan584th M · 65th M50Time16:51:33hPace3.38Cat.M50
- 752Lui, Lai-ManHong KongWoman168th F · 54th W23Time16:51:37hPace3.38Cat.W23
- 753Leung, Wai-HungHong KongMan585th M · 8th M60Time16:51:46hPace3.38Cat.M60
Showing ranks 701–750 of 825